Deadhorse Airport
PASC : now visible

Aeroporto :











RITROVATECI SU...

 
LOGIN :

Iscrizione | Disclaimer

   EN    FR    IT 

 









Sommario :    VFR   VFR Marginale   IFR   IFR Intensivo   IFR Molto Intensivo
Visibilità : 
Base nubi : 
>= 8 km
>= 3000ft
5 / 8 km
1000 / 3000 ft
1500m / 5 km
500 / 1000 ft
800 / 1500m
200 / 500 ft
< 800m
< 200 ft
Simboli :   Temporali  Nebbia  Neve Forte  Precipitazioni Forti  Vento > 20 kt






- Altitudine del aeroporto : 65 ft
- Codice IATA : SCC


PASC - Deadhorse

ULTIMO METAR :
  • 011953Z 08024G33KT 10SM BKN010 00/M03 A2986 RMK AO2 PK WND 08034/1906 SLP111 BKN V SCT T00001033

METARs OBSOLETI :
  • 011853Z 07027G32KT 10SM BKN010 00/M03 A2986 RMK AO2 PK WND 08035/1756 SLP113 CIG 008V012 T00001033
  • 011831Z 08029G33KT 10SM BKN010 M01/M03 A2986 RMK AO2 PK WND 08035/1756 CIG 008V012 T10061033
  • 011753Z 07026G33KT 10SM OVC008 M01/M03 A2986 RMK AO2 PK WND 07033/1710 SLP112 T10061033 11006 21022 50000

TAF PASC
Valido dal 01 a 18 ore il 02 a 18 ore UTC


011740Z 0118/0218 08025G36KT P6SM OVC007
FIR PAZA / America del Nord



MetMap, La meteo Aeronautica in un colpo d'occhio ! - Copyright ORBIFLY Dicembre 2007 - Disclaimer

ORBIFLY MET'MAP TEAM :

Programmazione e sviluppo : Alexandra Zaïnal
Concezione : Baudouin d'Aumeries
Aiuto per la programmazione : Marc-Olivier Méhu
Supporto tecnico e logistico : Manuel Goepfert
Aiuto per la traduzione : Arnaldo La Scala

Contatto : metmap@orbifly.com




FONTI E CREDITI :

   NOAA       Earth
Advisory